Weather at Boeing Field King County International Airport

Public forecast

Using degrees Fahrenheit for public forecast. Weather courtesy of forecast.io.

Current aviation weather report (METAR) for Boeing Field King County International Airport

2024/04/22 05:53 (retrieved 25 minutes ago)

KBFI 220553Z 00000KT 10SM OVC070 11/03 A3031 RMK AO2 SLP262 T01060028 10150 20106 58002

Aviation forecast (TAF) for Boeing Field King County International Airport

2024/04/22 06:22 (retrieved 0 seconds ago)

TAF KBFI 220520Z 2206/2306 VRB04KT P6SM BKN050 FM220900 VRB03KT P6SM SCT050 FM221900 34009KT P6SM FEW200 FM230500 VRB04KT P6SM FEW200